createdAt,value
2018-05-13T00:01:04.546Z,49.08
2018-05-13T00:03:31.957Z,48.79
2018-05-13T00:05:59.344Z,49.08
2018-05-13T00:08:26.729Z,48.84
2018-05-13T00:10:54.137Z,48.92
2018-05-13T00:13:21.508Z,49.12
2018-05-13T00:15:48.894Z,48.91
2018-05-13T00:18:16.284Z,49.12
2018-05-13T00:20:43.676Z,49.13
2018-05-13T00:23:11.064Z,49.14
2018-05-13T00:25:38.450Z,48.60
2018-05-13T00:28:05.845Z,48.87
2018-05-13T00:30:33.220Z,49.30
2018-05-13T00:33:00.605Z,48.57
2018-05-13T00:35:27.992Z,49.50
2018-05-13T00:37:55.485Z,49.20
2018-05-13T00:40:22.907Z,49.34
2018-05-13T00:42:50.303Z,48.99
2018-05-13T00:45:17.743Z,49.02
2018-05-13T00:47:45.126Z,49.07
2018-05-13T00:50:12.504Z,50.08
2018-05-13T00:52:39.888Z,49.72
2018-05-13T00:55:07.311Z,49.42
2018-05-13T00:57:34.738Z,49.90
2018-05-13T01:00:02.128Z,50.01
2018-05-13T01:02:29.521Z,50.16
2018-05-13T01:04:56.892Z,50.26
2018-05-13T01:07:24.286Z,50.20
2018-05-13T01:09:51.669Z,51.12
2018-05-13T01:12:19.048Z,50.68
2018-05-13T01:14:46.423Z,51.53
2018-05-13T01:17:13.812Z,50.69
2018-05-13T01:19:41.202Z,50.98
2018-05-13T01:22:08.772Z,50.82
2018-05-13T01:24:36.354Z,51.41
2018-05-13T01:27:03.739Z,51.15
2018-05-13T01:29:31.124Z,51.00
2018-05-13T01:31:58.577Z,51.54
2018-05-13T01:34:25.882Z,51.44
2018-05-13T01:36:53.282Z,51.55
2018-05-13T01:39:20.693Z,51.91
2018-05-13T01:41:48.098Z,52.16
2018-05-13T01:44:15.494Z,51.81
2018-05-13T01:46:42.884Z,52.14
2018-05-13T01:49:10.269Z,52.83
2018-05-13T01:51:37.661Z,52.05
2018-05-13T01:54:06.036Z,52.47
2018-05-13T01:56:33.435Z,53.10
2018-05-13T01:59:00.816Z,53.37
2018-05-13T02:01:28.207Z,52.44
2018-05-13T02:03:55.717Z,52.48
2018-05-13T02:06:23.139Z,52.65
2018-05-13T02:08:50.531Z,53.30
2018-05-13T02:11:17.982Z,53.23
2018-05-13T02:13:45.385Z,54.23
2018-05-13T02:16:12.993Z,53.49
2018-05-13T02:18:40.678Z,54.41
2018-05-13T02:21:08.094Z,54.96
2018-05-13T02:23:35.508Z,54.65
2018-05-13T02:26:02.968Z,54.98
2018-05-13T02:28:30.344Z,55.25
2018-05-13T02:30:58.018Z,55.77
2018-05-13T02:33:25.402Z,56.58
2018-05-13T02:35:52.782Z,56.27
2018-05-13T02:38:20.180Z,56.64
2018-05-13T02:40:47.579Z,57.72
2018-05-13T02:43:14.977Z,56.70
2018-05-13T02:45:42.351Z,56.97
2018-05-13T02:48:09.761Z,57.59
2018-05-13T02:50:37.136Z,57.64
2018-05-13T02:53:05.374Z,58.51
2018-05-13T02:55:32.760Z,59.38
2018-05-13T02:58:00.148Z,59.05
2018-05-13T03:00:27.523Z,58.84
2018-05-13T03:02:54.916Z,59.02
2018-05-13T03:05:22.316Z,59.52
2018-05-13T03:07:49.712Z,59.65
2018-05-13T03:10:17.103Z,60.51
2018-05-13T03:12:44.503Z,60.10
2018-05-13T03:15:11.876Z,59.68
2018-05-13T03:17:39.268Z,59.30
2018-05-13T03:20:06.656Z,59.36
2018-05-13T03:22:34.036Z,59.21
2018-05-13T03:25:01.427Z,59.27
2018-05-13T03:27:28.825Z,60.16
2018-05-13T03:29:56.208Z,60.26
2018-05-13T03:32:23.622Z,60.76
2018-05-13T03:34:50.995Z,60.94
2018-05-13T03:37:18.392Z,61.04
2018-05-13T03:39:45.788Z,61.03
2018-05-13T03:42:13.190Z,61.49
2018-05-13T03:44:40.572Z,61.40
2018-05-13T03:47:07.963Z,61.11
2018-05-13T03:49:35.904Z,61.27
2018-05-13T03:52:03.317Z,60.40
2018-05-13T03:54:30.699Z,60.10
2018-05-13T03:56:58.116Z,60.51
2018-05-13T03:59:25.547Z,61.02
2018-05-13T04:01:52.894Z,62.39
2018-05-13T04:04:20.300Z,62.66
2018-05-13T04:06:47.721Z,62.97
2018-05-13T04:09:27.047Z,62.22
2018-05-13T04:12:06.139Z,61.31
2018-05-13T04:14:45.338Z,61.31
2018-05-13T04:17:12.738Z,60.36
2018-05-13T04:19:40.146Z,60.27
2018-05-13T04:22:07.520Z,60.34
2018-05-13T04:24:35.840Z,60.24
2018-05-13T04:27:03.216Z,59.71
2018-05-13T04:29:30.612Z,60.92
2018-05-13T04:31:57.990Z,62.32
2018-05-13T04:34:25.402Z,60.42
2018-05-13T04:36:52.769Z,59.95
2018-05-13T04:39:20.164Z,61.10
2018-05-13T04:41:47.546Z,60.59
2018-05-13T04:44:14.942Z,59.53
2018-05-13T04:46:42.322Z,60.17
2018-05-13T04:49:09.721Z,59.39
2018-05-13T04:51:37.135Z,60.72
2018-05-13T04:54:04.520Z,60.37
2018-05-13T04:56:31.899Z,60.37
2018-05-13T04:58:59.304Z,60.33
2018-05-13T05:01:26.673Z,60.39
2018-05-13T05:03:54.058Z,60.54
2018-05-13T05:06:21.432Z,60.22
2018-05-13T05:08:48.847Z,59.91
2018-05-13T05:11:16.210Z,60.66
2018-05-13T05:13:43.600Z,60.78
2018-05-13T05:16:10.980Z,60.67
2018-05-13T05:18:38.373Z,60.17
2018-05-13T05:21:05.959Z,59.89
2018-05-13T05:23:33.358Z,59.74
2018-05-13T05:26:00.736Z,59.60
2018-05-13T05:28:28.674Z,60.03
2018-05-13T05:30:56.055Z,59.96
2018-05-13T05:33:23.450Z,61.65
2018-05-13T05:35:50.952Z,61.69
2018-05-13T05:38:18.233Z,61.37
2018-05-13T05:40:45.612Z,61.05
2018-05-13T05:43:12.999Z,60.78
2018-05-13T05:45:40.380Z,60.30
2018-05-13T05:48:07.769Z,60.13
2018-05-13T05:50:36.115Z,60.04
2018-05-13T05:53:03.515Z,61.26
2018-05-13T05:55:30.896Z,60.33
2018-05-13T05:57:58.291Z,59.67
2018-05-13T06:00:25.684Z,59.38
2018-05-13T06:02:53.243Z,60.09
2018-05-13T06:05:20.627Z,59.64
2018-05-13T06:07:48.012Z,59.58
2018-05-13T06:10:15.418Z,59.56
2018-05-13T06:12:42.825Z,59.95
2018-05-13T06:15:10.231Z,59.41
2018-05-13T06:17:37.615Z,59.77
2018-05-13T06:20:05.014Z,60.00
2018-05-13T06:22:32.395Z,59.84
2018-05-13T06:24:59.812Z,60.28
2018-05-13T06:27:27.202Z,60.33
2018-05-13T06:29:54.600Z,60.15
2018-05-13T06:32:21.988Z,59.80
2018-05-13T06:34:49.384Z,59.61
2018-05-13T06:37:16.767Z,59.58
2018-05-13T06:39:44.227Z,59.42
2018-05-13T06:42:11.547Z,59.11
2018-05-13T06:44:38.932Z,58.99
2018-05-13T06:47:06.458Z,58.76
2018-05-13T06:49:33.846Z,58.29
2018-05-13T06:52:01.236Z,58.72
2018-05-13T06:54:28.630Z,58.01
2018-05-13T06:56:56.019Z,57.77
2018-05-13T06:59:23.414Z,57.24
2018-05-13T07:01:50.792Z,57.70
2018-05-13T07:04:18.181Z,58.08
2018-05-13T07:06:45.572Z,57.48
2018-05-13T07:09:12.957Z,57.79
2018-05-13T07:11:40.343Z,57.93
2018-05-13T07:14:07.733Z,57.25
2018-05-13T07:16:35.106Z,56.82
2018-05-13T07:19:02.499Z,55.86
2018-05-13T07:21:29.878Z,55.68
2018-05-13T07:23:57.272Z,55.35
2018-05-13T07:26:24.651Z,55.10
2018-05-13T07:28:52.051Z,55.44
2018-05-13T07:31:19.429Z,55.52
2018-05-13T07:33:46.814Z,54.50
2018-05-13T07:36:14.196Z,54.52
2018-05-13T07:38:41.586Z,54.54
2018-05-13T07:41:08.963Z,55.04
2018-05-13T07:43:36.654Z,54.74
2018-05-13T07:46:04.040Z,54.63
2018-05-13T07:48:31.429Z,54.49
2018-05-13T07:50:58.826Z,53.93
2018-05-13T07:53:26.216Z,54.17
2018-05-13T07:55:53.599Z,54.21
2018-05-13T07:58:20.976Z,53.93
2018-05-13T08:00:48.413Z,54.92
2018-05-13T08:03:15.802Z,54.08
2018-05-13T08:05:43.178Z,54.06
2018-05-13T08:08:10.562Z,54.26
2018-05-13T08:10:37.965Z,55.09
2018-05-13T08:13:05.351Z,55.55
2018-05-13T08:15:32.746Z,55.45
2018-05-13T08:18:00.146Z,55.17
2018-05-13T08:20:27.638Z,55.86
2018-05-13T08:22:54.919Z,54.77
2018-05-13T08:25:22.306Z,54.46
2018-05-13T08:27:49.687Z,55.36
2018-05-13T08:30:17.080Z,56.27
2018-05-13T08:32:44.460Z,56.35
2018-05-13T08:35:11.858Z,57.07
2018-05-13T08:37:39.243Z,59.22
2018-05-13T08:40:07.522Z,59.20
2018-05-13T08:42:34.900Z,59.31
2018-05-13T08:45:02.617Z,58.67
2018-05-13T08:47:30.000Z,58.33
2018-05-13T08:49:57.399Z,59.19
2018-05-13T08:52:24.773Z,61.06
2018-05-13T08:54:52.178Z,59.98
2018-05-13T08:57:19.555Z,58.38
2018-05-13T08:59:46.955Z,58.18
2018-05-13T09:02:14.636Z,58.76
2018-05-13T09:04:42.023Z,58.41
2018-05-13T09:07:09.401Z,58.63
2018-05-13T09:09:37.070Z,58.64
2018-05-13T09:12:04.492Z,57.38
2018-05-13T09:14:31.881Z,58.04
2018-05-13T09:16:59.250Z,58.51
2018-05-13T09:19:26.650Z,57.98
2018-05-13T09:21:54.044Z,57.92
2018-05-13T09:24:21.444Z,57.95
2018-05-13T09:26:48.830Z,58.36
2018-05-13T09:29:16.263Z,57.95
2018-05-13T09:31:43.648Z,57.62
2018-05-13T09:34:11.015Z,57.47
2018-05-13T09:36:38.382Z,57.08
2018-05-13T09:39:05.774Z,57.46
2018-05-13T09:41:33.147Z,56.39
2018-05-13T09:44:00.539Z,56.84
2018-05-13T09:46:27.910Z,56.32
2018-05-13T09:48:55.351Z,55.91
2018-05-13T09:51:22.764Z,55.59
2018-05-13T09:53:50.102Z,55.39
2018-05-13T09:56:17.474Z,55.08
2018-05-13T09:58:44.843Z,55.67
2018-05-13T10:01:12.225Z,55.02
2018-05-13T10:03:39.591Z,54.80
2018-05-13T10:06:07.360Z,54.70
2018-05-13T10:08:35.123Z,54.82
2018-05-13T10:11:02.511Z,54.20
2018-05-13T10:13:29.886Z,54.26
2018-05-13T10:15:57.274Z,54.17
2018-05-13T10:18:24.663Z,54.66
2018-05-13T10:20:52.855Z,53.59
2018-05-13T10:23:20.236Z,53.86
2018-05-13T10:25:47.627Z,53.80
2018-05-13T10:28:15.108Z,53.67
2018-05-13T10:30:42.490Z,52.97
2018-05-13T10:33:09.863Z,52.87
2018-05-13T10:35:37.486Z,52.47
2018-05-13T10:38:04.876Z,52.10
2018-05-13T10:40:32.263Z,52.77
2018-05-13T10:42:59.642Z,53.49
2018-05-13T10:45:27.023Z,54.21
2018-05-13T10:47:54.429Z,53.28
2018-05-13T10:50:21.810Z,52.63
2018-05-13T10:52:49.191Z,52.54
2018-05-13T10:55:16.572Z,52.43
2018-05-13T10:57:43.997Z,52.59
2018-05-13T11:00:11.328Z,52.39
2018-05-13T11:02:38.705Z,51.73
2018-05-13T11:05:06.092Z,51.56
2018-05-13T11:07:33.465Z,51.03
2018-05-13T11:10:00.846Z,50.37
2018-05-13T11:12:28.226Z,50.43
2018-05-13T11:14:55.626Z,51.29
2018-05-13T11:17:23.009Z,51.36
2018-05-13T11:19:57.344Z,51.13
2018-05-13T11:22:24.720Z,51.47
2018-05-13T11:24:52.123Z,51.62
2018-05-13T11:27:19.505Z,51.55
2018-05-13T11:29:46.882Z,51.70
2018-05-13T11:32:14.278Z,51.37
2018-05-13T11:34:41.648Z,50.51
2018-05-13T11:37:09.030Z,50.13
2018-05-13T11:39:36.405Z,50.29
2018-05-13T11:42:03.798Z,50.36
2018-05-13T11:44:31.201Z,50.04
2018-05-13T11:46:58.588Z,49.97
2018-05-13T11:49:25.972Z,49.83
2018-05-13T11:51:53.365Z,49.24
2018-05-13T11:54:20.740Z,48.86
2018-05-13T11:56:48.136Z,47.24
2018-05-13T11:59:15.507Z,46.72
2018-05-13T12:01:42.894Z,45.74
2018-05-13T12:04:10.270Z,44.39
2018-05-13T12:06:37.824Z,43.44
2018-05-13T12:09:05.232Z,43.82
2018-05-13T12:11:32.603Z,45.19
2018-05-13T12:13:59.982Z,45.07
2018-05-13T12:16:27.469Z,45.50
2018-05-13T12:18:54.806Z,43.33
2018-05-13T12:21:22.185Z,42.84
2018-05-13T12:23:49.567Z,42.23
2018-05-13T12:26:16.956Z,41.46
2018-05-13T12:28:44.342Z,41.10
2018-05-13T12:31:11.719Z,41.55
2018-05-13T12:33:39.101Z,41.39
2018-05-13T12:36:06.466Z,40.53
2018-05-13T12:38:33.939Z,39.15
2018-05-13T12:41:01.326Z,39.40
2018-05-13T12:43:28.707Z,39.49
2018-05-13T12:45:56.148Z,39.95
2018-05-13T12:48:23.587Z,40.22
2018-05-13T12:50:50.975Z,40.29
2018-05-13T12:53:18.349Z,41.67
2018-05-13T12:55:45.742Z,41.86
2018-05-13T12:58:13.120Z,42.31
2018-05-13T13:00:40.500Z,42.74
2018-05-13T13:03:08.291Z,43.33
2018-05-13T13:05:35.678Z,43.27
2018-05-13T13:08:03.050Z,44.06
2018-05-13T13:10:30.568Z,44.21
2018-05-13T13:12:57.998Z,45.27
2018-05-13T13:15:25.303Z,45.00
2018-05-13T13:17:52.668Z,45.39
2018-05-13T13:20:20.069Z,45.83
2018-05-13T13:22:47.448Z,45.59
2018-05-13T13:25:14.874Z,45.89
2018-05-13T13:27:42.259Z,45.75
2018-05-13T13:30:09.635Z,46.60
2018-05-13T13:32:37.008Z,46.37
2018-05-13T13:35:04.428Z,46.67
2018-05-13T13:37:31.808Z,49.27
2018-05-13T13:39:59.187Z,51.19
2018-05-13T13:42:26.571Z,49.32
2018-05-13T13:44:53.962Z,45.86
2018-05-13T13:47:21.383Z,44.31
2018-05-13T13:49:48.719Z,42.98
2018-05-13T13:52:16.128Z,43.12
2018-05-13T13:54:43.488Z,42.91
2018-05-13T13:57:10.862Z,43.08
2018-05-13T13:59:38.599Z,42.83
2018-05-13T14:02:06.034Z,40.78
2018-05-13T14:04:33.398Z,39.61
2018-05-13T14:07:00.799Z,38.90
2018-05-13T14:09:28.159Z,41.51
2018-05-13T14:11:55.626Z,42.96
2018-05-13T14:14:22.934Z,44.73
2018-05-13T14:16:50.314Z,45.82
2018-05-13T14:19:17.727Z,45.72
2018-05-13T14:21:45.115Z,45.64
2018-05-13T14:24:12.493Z,42.94
2018-05-13T14:26:39.886Z,39.89
2018-05-13T14:29:07.301Z,40.63
2018-05-13T14:31:34.689Z,42.86
2018-05-13T14:34:02.098Z,43.88
2018-05-13T14:36:29.479Z,44.75
2018-05-13T14:38:56.854Z,44.30
2018-05-13T14:41:24.235Z,44.75
2018-05-13T14:43:51.623Z,44.93
2018-05-13T14:46:19.027Z,44.92
2018-05-13T14:48:46.408Z,45.94
2018-05-13T14:51:13.779Z,46.38
2018-05-13T14:53:41.169Z,46.62
2018-05-13T14:56:08.731Z,46.60
2018-05-13T14:58:36.132Z,47.06
2018-05-13T15:01:03.571Z,46.73
2018-05-13T15:03:30.950Z,46.40
2018-05-13T15:05:58.331Z,46.70
2018-05-13T15:08:25.710Z,46.79
2018-05-13T15:10:53.094Z,47.12
2018-05-13T15:13:20.486Z,46.98
2018-05-13T15:15:48.554Z,47.36
2018-05-13T15:18:15.935Z,47.47
2018-05-13T15:20:43.310Z,47.85
2018-05-13T15:23:10.697Z,48.07
2018-05-13T15:25:38.818Z,47.24
2018-05-13T15:28:06.192Z,47.70
2018-05-13T15:30:33.579Z,47.75
2018-05-13T15:33:00.975Z,48.29
2018-05-13T15:35:28.358Z,47.70
2018-05-13T15:37:55.750Z,48.63
2018-05-13T15:40:23.126Z,49.07
2018-05-13T15:42:50.619Z,49.14
2018-05-13T15:45:17.971Z,50.23
2018-05-13T15:47:45.338Z,50.48
2018-05-13T15:50:12.757Z,49.90
2018-05-13T15:52:40.260Z,50.26
2018-05-13T15:55:07.703Z,50.27
2018-05-13T15:57:35.019Z,49.84
2018-05-13T16:00:02.421Z,49.01
2018-05-13T16:02:29.803Z,49.86
2018-05-13T16:04:57.499Z,50.15
2018-05-13T16:07:24.907Z,50.41
2018-05-13T16:09:52.292Z,50.61
2018-05-13T16:12:19.770Z,51.14
2018-05-13T16:14:47.047Z,50.61
2018-05-13T16:17:14.432Z,49.65
2018-05-13T16:19:41.808Z,49.88
2018-05-13T16:22:09.191Z,50.28
2018-05-13T16:24:36.568Z,50.46
2018-05-13T16:27:03.958Z,50.99
2018-05-13T16:29:31.336Z,50.73
2018-05-13T16:31:58.715Z,51.18
2018-05-13T16:34:26.087Z,50.71
2018-05-13T16:36:53.480Z,50.70
2018-05-13T16:39:20.856Z,49.95
2018-05-13T16:41:48.259Z,50.49
2018-05-13T16:44:15.654Z,50.95
2018-05-13T16:46:43.030Z,51.42
2018-05-13T16:49:10.410Z,52.22
2018-05-13T16:51:37.820Z,51.77
2018-05-13T16:54:05.180Z,51.79
2018-05-13T16:56:32.779Z,51.95
2018-05-13T16:59:00.150Z,52.51
2018-05-13T17:01:27.525Z,52.59
2018-05-13T17:03:54.904Z,52.67
2018-05-13T17:06:22.302Z,53.07
2018-05-13T17:08:49.689Z,52.66
2018-05-13T17:11:17.054Z,52.58
2018-05-13T17:13:44.442Z,53.28
2018-05-13T17:16:11.825Z,53.57
2018-05-13T17:18:39.312Z,53.94
2018-05-13T17:21:06.683Z,53.32
2018-05-13T17:23:34.152Z,52.92
2018-05-13T17:26:01.448Z,52.92
2018-05-13T17:28:28.831Z,53.84
2018-05-13T17:30:56.214Z,54.67
2018-05-13T17:33:23.599Z,55.13
2018-05-13T17:35:51.015Z,55.55
2018-05-13T17:38:18.404Z,56.06
2018-05-13T17:40:45.779Z,55.06
2018-05-13T17:43:13.173Z,55.61
2018-05-13T17:45:40.552Z,55.94
2018-05-13T17:48:07.930Z,55.80
2018-05-13T17:50:35.302Z,55.48
2018-05-13T17:53:02.697Z,55.21
2018-05-13T17:55:30.094Z,55.36
2018-05-13T17:57:57.499Z,55.59
2018-05-13T18:00:24.866Z,55.49
2018-05-13T18:02:52.252Z,55.54
2018-05-13T18:05:19.628Z,55.99
2018-05-13T18:07:47.006Z,56.84
2018-05-13T18:10:14.482Z,56.68
2018-05-13T18:12:41.882Z,56.67
2018-05-13T18:15:09.549Z,57.05
2018-05-13T18:17:36.936Z,57.30
2018-05-13T18:20:04.339Z,57.96
2018-05-13T18:22:31.755Z,57.83
2018-05-13T18:24:59.122Z,58.08
2018-05-13T18:27:26.523Z,57.44
2018-05-13T18:29:53.919Z,57.70
2018-05-13T18:32:21.302Z,56.85
2018-05-13T18:34:48.675Z,56.98
2018-05-13T18:37:16.054Z,57.15
2018-05-13T18:39:43.678Z,57.63
2018-05-13T18:42:11.054Z,57.46
2018-05-13T18:44:38.494Z,57.43
2018-05-13T18:47:05.823Z,57.49
2018-05-13T18:49:33.208Z,57.48
2018-05-13T18:52:00.602Z,57.85
2018-05-13T18:54:28.039Z,57.88
2018-05-13T18:56:55.414Z,58.64
2018-05-13T18:59:22.814Z,58.61
2018-05-13T19:01:50.192Z,58.42
2018-05-13T19:04:17.730Z,58.35
2018-05-13T19:06:45.119Z,58.75
2018-05-13T19:09:12.499Z,58.54
2018-05-13T19:11:39.883Z,58.90
2018-05-13T19:14:07.266Z,59.31
2018-05-13T19:16:34.645Z,59.43
2018-05-13T19:19:02.047Z,59.47
2018-05-13T19:21:29.407Z,60.06
2018-05-13T19:23:56.788Z,60.36
2018-05-13T19:26:24.162Z,60.63
2018-05-13T19:28:51.547Z,60.73
2018-05-13T19:31:18.954Z,60.35
2018-05-13T19:33:46.318Z,60.97
2018-05-13T19:36:13.698Z,61.07
2018-05-13T19:38:41.090Z,60.71
2018-05-13T19:41:08.467Z,60.92
2018-05-13T19:43:35.860Z,60.70
2018-05-13T19:46:03.251Z,60.14
2018-05-13T19:48:30.614Z,59.78
2018-05-13T19:50:58.000Z,59.71
2018-05-13T19:53:25.395Z,60.07
2018-05-13T19:55:52.778Z,60.82
2018-05-13T19:58:20.175Z,61.58
2018-05-13T20:00:47.648Z,61.91
2018-05-13T20:03:15.065Z,64.12
2018-05-13T20:05:42.417Z,66.78
2018-05-13T20:08:10.005Z,66.95
2018-05-13T20:10:37.443Z,68.06
2018-05-13T20:13:04.811Z,67.25
2018-05-13T20:15:32.191Z,67.64
2018-05-13T20:17:59.586Z,67.33
2018-05-13T20:20:26.965Z,68.51
2018-05-13T20:23:06.399Z,69.76
2018-05-13T20:25:33.960Z,69.31
2018-05-13T20:28:01.554Z,69.94
2018-05-13T20:30:28.976Z,70.53
2018-05-13T20:32:56.371Z,71.92
2018-05-13T20:35:23.771Z,72.38
2018-05-13T20:37:51.162Z,72.57
2018-05-13T20:40:18.727Z,72.35
2018-05-13T20:42:46.286Z,72.93
2018-05-13T20:45:13.751Z,72.51
2018-05-13T20:47:41.152Z,72.62
2018-05-13T20:50:08.537Z,73.14
2018-05-13T20:52:35.927Z,73.19
2018-05-13T20:55:03.329Z,73.70
2018-05-13T20:57:30.699Z,73.18
2018-05-13T20:59:58.230Z,72.18
2018-05-13T21:02:25.686Z,73.76
2018-05-13T21:04:53.091Z,73.64
2018-05-13T21:07:20.483Z,73.32
2018-05-13T21:09:47.882Z,72.63
2018-05-13T21:12:15.911Z,73.08
2018-05-13T21:14:43.305Z,72.29
2018-05-13T21:17:10.677Z,72.37
2018-05-13T21:19:38.077Z,72.72
2018-05-13T21:22:05.561Z,72.94
2018-05-13T21:24:33.063Z,72.78
2018-05-13T21:27:00.939Z,72.56
2018-05-13T21:29:28.328Z,72.98
2018-05-13T21:31:55.729Z,72.50
2018-05-13T21:34:23.155Z,72.53
2018-05-13T21:36:50.527Z,72.98
2018-05-13T21:39:17.909Z,73.02
2018-05-13T21:41:45.303Z,73.25
2018-05-13T21:44:12.690Z,73.03
2018-05-13T21:46:40.471Z,72.84
2018-05-13T21:49:08.027Z,71.72
2018-05-13T21:51:35.415Z,70.65
2018-05-13T21:54:02.800Z,71.54
2018-05-13T21:56:30.175Z,70.82
2018-05-13T21:58:57.786Z,70.39
2018-05-13T22:01:25.161Z,70.45
2018-05-13T22:03:52.559Z,71.58
2018-05-13T22:06:19.961Z,72.84
2018-05-13T22:08:47.349Z,74.92
2018-05-13T22:11:14.943Z,73.65
2018-05-13T22:13:42.344Z,78.62
2018-05-13T22:16:10.584Z,79.12
2018-05-13T22:18:38.195Z,77.25
2018-05-13T22:21:05.571Z,77.28
2018-05-13T22:23:32.961Z,78.19
2018-05-13T22:26:00.370Z,77.55
2018-05-13T22:28:27.771Z,77.17
2018-05-13T22:30:55.220Z,77.14
2018-05-13T22:33:22.603Z,77.35
2018-05-13T22:35:49.990Z,76.10
2018-05-13T22:38:17.373Z,74.82
2018-05-13T22:40:44.760Z,76.55
2018-05-13T22:43:12.131Z,75.33
2018-05-13T22:45:39.524Z,75.58
2018-05-13T22:48:06.904Z,76.14
2018-05-13T22:50:34.286Z,75.82
2018-05-13T22:53:01.748Z,74.53
2018-05-13T22:55:29.130Z,76.71
2018-05-13T22:57:56.519Z,77.23
2018-05-13T23:00:24.036Z,80.51
2018-05-13T23:02:51.299Z,80.11
2018-05-13T23:05:18.753Z,81.07
2018-05-13T23:07:46.078Z,78.04
2018-05-13T23:10:13.493Z,78.23
2018-05-13T23:12:40.927Z,80.32
2018-05-13T23:15:08.323Z,79.30
2018-05-13T23:17:35.693Z,83.47
2018-05-13T23:20:03.088Z,79.40
2018-05-13T23:22:36.087Z,86.12
2018-05-13T23:25:03.528Z,84.25
2018-05-13T23:27:30.891Z,86.74
2018-05-13T23:29:58.294Z,85.49
2018-05-13T23:32:25.692Z,82.98
2018-05-13T23:34:53.070Z,81.61
2018-05-13T23:37:20.455Z,81.88
2018-05-13T23:39:47.853Z,80.97
2018-05-13T23:42:15.243Z,80.17
2018-05-13T23:44:42.693Z,82.19
2018-05-13T23:47:10.972Z,80.73
2018-05-13T23:49:38.366Z,80.90
2018-05-13T23:52:05.739Z,80.03
2018-05-13T23:54:33.127Z,80.00
2018-05-13T23:57:00.498Z,79.68
2018-05-13T23:59:27.882Z,81.47
